Time;durP1;ratioP1;P1;durP2;ratioP2;P2;SDS_P1;SDS_P2;PMS_P1;PMS_P2;Temp;Humidity;BMP_temperature;BMP_pressure;BME280_temperature;BME280_humidity;BME280_pressure;Samples;Min_cycle;Max_cycle;Signal;HPM_P1;HPM_P2
2024/03/04 00:02:22;;;;;;;32.42;18.30;;;8.90;99.90;;;;;;4966657;28;20031;-84
2024/03/04 00:04:50;;;;;;;33.88;18.70;;;8.90;99.90;;;;;;4969553;28;20038;-85
2024/03/04 00:07:16;;;;;;;36.55;18.92;;;8.90;99.90;;;;;;4964498;28;20118;-85
2024/03/04 00:09:44;;;;;;;32.47;18.83;;;8.80;99.90;;;;;;4948769;28;20062;-84
2024/03/04 00:12:09;;;;;;;33.97;19.35;;;8.80;99.90;;;;;;4972211;28;20034;-86
2024/03/04 00:14:35;;;;;;;38.92;19.33;;;8.80;99.90;;;;;;4971273;28;20027;-86
2024/03/04 00:17:01;;;;;;;35.67;18.85;;;9.70;99.90;;;;;;4971230;28;20041;-87
2024/03/04 00:19:27;;;;;;;35.28;18.67;;;8.80;99.90;;;;;;4968925;28;20613;-85
2024/03/04 00:21:52;;;;;;;38.47;19.65;;;10.60;99.90;;;;;;4968481;28;20399;-87
2024/03/04 00:24:27;;;;;;;37.10;18.98;;;8.80;99.90;;;;;;4952764;28;20030;-83
2024/03/04 00:26:53;;;;;;;38.08;19.20;;;9.80;99.90;;;;;;4988151;28;20042;-82
2024/03/04 00:29:18;;;;;;;32.75;18.30;;;8.80;99.90;;;;;;4966872;28;20023;-86
2024/03/04 00:31:44;;;;;;;32.45;18.80;;;8.90;99.90;;;;;;4968992;28;20027;-86
2024/03/04 00:34:15;;;;;;;34.05;18.55;;;8.70;99.90;;;;;;4973141;28;20038;-84
2024/03/04 00:36:41;;;;;;;38.97;20.48;;;8.70;99.90;;;;;;4966267;28;20023;-86
2024/03/04 00:39:09;;;;;;;35.33;19.45;;;8.80;99.90;;;;;;4972118;28;21235;-87
2024/03/04 00:41:35;;;;;;;37.95;19.55;;;9.70;99.90;;;;;;4965857;28;20126;-87
2024/03/04 00:44:22;;;;;;;37.17;20.00;;;9.40;99.90;;;;;;4969829;28;20370;-87
2024/03/04 00:46:47;;;;;;;34.78;19.15;;;8.90;99.90;;;;;;4968376;28;20038;-87
2024/03/04 00:49:13;;;;;;;35.58;18.08;;;11.00;99.90;;;;;;4969584;28;20042;-86
2024/03/04 00:51:39;;;;;;;33.58;18.73;;;7.00;99.90;;;;;;4967980;28;20066;-86
2024/03/04 00:54:05;;;;;;;37.35;19.55;;;9.60;99.90;;;;;;4967169;28;20038;-85
2024/03/04 00:56:33;;;;;;;36.17;19.40;;;8.80;99.90;;;;;;4967294;28;20035;-83
2024/03/04 00:59:00;;;;;;;33.85;18.60;;;10.90;99.90;;;;;;4970898;28;20548;-83
2024/03/04 01:01:25;;;;;;;34.05;19.08;;;8.70;99.90;;;;;;4968345;28;20035;-85
2024/03/04 01:03:54;;;;;;;42.25;20.95;;;8.70;99.90;;;;;;4962472;28;20034;-85
2024/03/04 01:06:19;;;;;;;35.50;19.40;;;8.40;99.90;;;;;;4972438;28;20035;-86
2024/03/04 01:08:45;;;;;;;36.50;19.02;;;8.70;99.90;;;;;;4966099;28;20101;-85
2024/03/04 01:11:11;;;;;;;34.67;20.02;;;8.80;99.90;;;;;;4969659;28;20118;-85
2024/03/04 01:13:39;;;;;;;34.90;18.98;;;8.80;99.90;;;;;;4967815;28;20023;-83
2024/03/04 01:16:05;;;;;;;36.38;20.27;;;8.80;99.90;;;;;;4965886;28;20489;-87
2024/03/04 01:18:31;;;;;;;35.50;19.20;;;8.80;99.90;;;;;;4969097;28;21424;-85
2024/03/04 01:20:57;;;;;;;37.33;19.38;;;9.80;99.90;;;;;;4968430;28;20022;-85
2024/03/04 01:23:23;;;;;;;35.65;19.38;;;8.90;99.90;;;;;;4975424;28;20126;-85
2024/03/04 01:25:49;;;;;;;37.70;19.80;;;10.00;99.90;;;;;;4964172;28;20430;-84
2024/03/04 01:28:14;;;;;;;34.35;18.48;;;8.90;99.90;;;;;;4969888;28;20096;-86
2024/03/04 01:30:40;;;;;;;37.03;19.75;;;9.00;99.90;;;;;;4970617;28;20023;-85
2024/03/04 01:33:08;;;;;;;33.55;17.58;;;9.10;99.90;;;;;;4970259;28;20030;-85
2024/03/04 01:35:34;;;;;;;31.85;18.05;;;9.20;99.90;;;;;;4969432;28;20397;-83
2024/03/04 01:38:00;;;;;;;40.58;19.45;;;9.20;99.90;;;;;;4970439;28;20027;-86
2024/03/04 01:40:26;;;;;;;34.20;19.05;;;9.80;99.90;;;;;;4967474;28;20031;-83
2024/03/04 01:42:56;;;;;;;35.28;18.23;;;9.20;99.90;;;;;;4969234;28;20041;-86
2024/03/04 01:45:26;;;;;;;36.23;18.97;;;9.30;99.90;;;;;;4971117;28;20031;-83
2024/03/04 01:48:04;;;;;;;36.10;18.08;;;9.20;99.90;;;;;;4971290;28;20293;-83
2024/03/04 01:50:39;;;;;;;35.50;18.88;;;9.30;99.90;;;;;;4983983;28;20035;-83
2024/03/04 01:53:06;;;;;;;34.67;18.00;;;9.40;99.90;;;;;;4986563;28;20518;-84
2024/03/04 01:55:42;;;;;;;37.10;17.90;;;9.40;99.90;;;;;;4967054;28;20110;-87
2024/03/04 01:58:11;;;;;;;37.08;18.08;;;9.30;99.90;;;;;;4967637;28;20023;-87
2024/03/04 02:00:40;;;;;;;34.40;19.15;;;9.30;99.90;;;;;;4967406;28;20034;-83
2024/03/04 02:03:08;;;;;;;34.22;18.48;;;9.30;99.90;;;;;;4965374;28;20027;-84
2024/03/04 02:05:35;;;;;;;34.88;18.63;;;9.40;99.90;;;;;;4975485;28;20125;-85
2024/03/04 02:08:01;;;;;;;36.03;19.08;;;10.70;99.90;;;;;;4967254;28;20027;-86
2024/03/04 02:10:27;;;;;;;35.50;18.67;;;11.10;99.90;;;;;;4984673;28;20035;-83
2024/03/04 02:12:54;;;;;;;34.88;18.58;;;9.50;99.90;;;;;;4970740;28;20424;-84
2024/03/04 02:15:20;;;;;;;40.78;19.77;;;10.70;99.90;;;;;;4967063;28;20054;-84
2024/03/04 02:17:45;;;;;;;36.65;19.88;;;10.50;99.90;;;;;;4971473;28;20027;-84
2024/03/04 02:20:15;;;;;;;38.30;19.40;;;9.50;99.90;;;;;;4988600;28;20034;-84
2024/03/04 02:22:42;;;;;;;36.60;18.38;;;13.00;99.90;;;;;;4958326;28;20041;-88
2024/03/04 02:25:11;;;;;;;39.78;20.17;;;9.90;99.90;;;;;;4970011;28;20408;-86
2024/03/04 02:27:42;;;;;;;37.10;19.15;;;9.40;99.90;;;;;;4974692;28;20035;-81
2024/03/04 02:30:08;;;;;;;37.38;19.42;;;9.30;99.90;;;;;;4973062;28;20054;-86
2024/03/04 02:32:35;;;;;;;39.15;19.25;;;9.40;99.90;;;;;;4973794;28;21374;-85
2024/03/04 02:35:07;;;;;;;38.53;20.08;;;;;;;;;;4968639;28;20031;-83
2024/03/04 02:37:35;;;;;;;37.53;18.73;;;9.40;99.90;;;;;;4976575;28;20023;-85
2024/03/04 02:40:06;;;;;;;43.35;20.48;;;11.50;99.90;;;;;;4974388;28;20067;-86
2024/03/04 02:42:32;;;;;;;36.78;19.08;;;11.40;99.90;;;;;;4971679;28;20456;-84
2024/03/04 02:44:58;;;;;;;36.47;18.77;;;10.80;99.90;;;;;;4972065;28;20054;-85
2024/03/04 02:47:24;;;;;;;39.05;19.88;;;10.30;99.90;;;;;;4976549;28;20058;-86
2024/03/04 02:49:49;;;;;;;40.75;20.52;;;9.60;99.90;;;;;;4977707;28;20058;-86
2024/03/04 02:52:15;;;;;;;35.85;18.55;;;9.60;99.90;;;;;;4971971;28;20030;-85
2024/03/04 02:54:40;;;;;;;37.72;19.02;;;9.60;99.90;;;;;;4971024;28;20943;-85
2024/03/04 02:57:06;;;;;;;35.92;18.83;;;9.60;99.90;;;;;;4972694;28;20069;-83
2024/03/04 02:59:32;;;;;;;37.67;19.20;;;9.60;99.90;;;;;;4969892;28;20057;-86
2024/03/04 03:01:57;;;;;;;37.20;19.05;;;9.80;99.90;;;;;;4970656;28;20038;-82
2024/03/04 03:04:25;;;;;;;40.85;18.52;;;9.60;99.90;;;;;;4972439;28;20030;-87
2024/03/04 03:06:51;;;;;;;35.42;18.90;;;9.60;99.90;;;;;;4970427;28;20121;-84
2024/03/04 03:09:17;;;;;;;36.30;18.55;;;9.60;99.90;;;;;;4973976;28;20062;-82
2024/03/04 03:11:43;;;;;;;35.38;19.20;;;9.60;99.90;;;;;;4973172;28;20098;-86
2024/03/04 03:14:08;;;;;;;38.58;17.85;;;9.60;99.90;;;;;;4972523;28;20030;-85
2024/03/04 03:16:34;;;;;;;34.35;18.63;;;9.80;99.90;;;;;;4971847;28;20034;-86
2024/03/04 03:18:59;;;;;;;35.75;17.58;;;10.20;99.90;;;;;;4973112;28;20037;-88
2024/03/04 03:21:29;;;;;;;36.28;18.65;;;9.60;99.90;;;;;;4960809;28;20031;-87
2024/03/04 03:23:55;;;;;;;32.78;17.48;;;10.20;99.90;;;;;;4977495;28;20089;-85
2024/03/04 03:26:22;;;;;;;35.05;18.98;;;9.50;99.90;;;;;;4972063;28;20057;-84
2024/03/04 03:28:48;;;;;;;35.60;18.45;;;9.90;99.90;;;;;;4989403;28;20023;-86
2024/03/04 03:31:15;;;;;;;32.38;17.52;;;9.70;99.90;;;;;;4985440;28;20046;-84
2024/03/04 03:33:41;;;;;;;33.65;17.92;;;10.20;99.90;;;;;;4990784;28;20027;-86
2024/03/04 03:36:07;;;;;;;34.42;17.63;;;10.30;99.90;;;;;;4968200;28;20038;-86
2024/03/04 03:38:33;;;;;;;37.70;17.88;;;9.60;99.90;;;;;;4975395;28;20092;-83
2024/03/04 03:41:00;;;;;;;30.88;16.92;;;10.50;99.90;;;;;;4973776;28;20038;-86
2024/03/04 03:43:26;;;;;;;31.40;16.40;;;9.60;99.90;;;;;;4972295;28;20019;-83
2024/03/04 03:45:52;;;;;;;32.67;16.20;;;10.30;99.90;;;;;;4971416;28;20053;-82
2024/03/04 03:48:20;;;;;;;29.75;14.77;;;11.00;99.90;;;;;;4975544;28;20034;-82
2024/03/04 03:50:47;;;;;;;27.30;14.43;;;11.20;99.90;;;;;;4972785;28;20122;-84
2024/03/04 03:53:13;;;;;;;28.15;14.50;;;9.50;99.90;;;;;;4990584;28;20408;-86
2024/03/04 03:55:40;;;;;;;26.00;13.80;;;9.60;99.90;;;;;;4967251;28;20085;-84
2024/03/04 03:58:06;;;;;;;24.25;13.57;;;11.30;99.90;;;;;;4972678;28;20506;-85
2024/03/04 04:00:32;;;;;;;23.83;13.80;;;9.40;99.90;;;;;;4973324;28;20030;-84
2024/03/04 04:02:59;;;;;;;25.30;13.93;;;10.40;99.90;;;;;;4965546;28;20042;-84
2024/03/04 04:05:25;;;;;;;24.45;13.05;;;9.40;99.90;;;;;;4965036;28;20047;-83
2024/03/04 04:07:50;;;;;;;22.50;13.00;;;9.50;99.90;;;;;;4971624;28;20038;-86
2024/03/04 04:10:16;;;;;;;19.73;11.02;;;11.00;99.90;;;;;;4986061;28;20038;-84
2024/03/04 04:12:42;;;;;;;20.58;11.93;;;11.10;99.90;;;;;;4970850;28;20049;-85
2024/03/04 04:15:08;;;;;;;20.27;11.02;;;9.40;99.90;;;;;;4968659;28;20118;-85
2024/03/04 04:17:33;;;;;;;23.15;11.18;;;9.40;99.90;;;;;;4973581;28;20027;-83
2024/03/04 04:19:59;;;;;;;20.25;11.48;;;10.60;99.90;;;;;;4971168;28;20046;-81
2024/03/04 04:22:26;;;;;;;19.30;11.63;;;10.20;99.90;;;;;;4970809;28;20031;-83
2024/03/04 04:24:52;;;;;;;19.05;11.18;;;10.80;99.90;;;;;;4967015;28;20118;-84
2024/03/04 04:27:18;;;;;;;20.02;10.85;;;10.70;99.90;;;;;;4975915;28;20061;-84
2024/03/04 04:29:44;;;;;;;20.05;11.13;;;10.20;99.90;;;;;;4957974;28;20098;-82
2024/03/04 04:32:13;;;;;;;20.42;11.77;;;10.40;99.90;;;;;;4968548;28;20116;-86
2024/03/04 04:34:44;;;;;;;19.48;11.25;;;9.30;99.90;;;;;;4971296;28;20038;-85
2024/03/04 04:37:10;;;;;;;21.65;11.75;;;9.20;99.90;;;;;;4969625;28;20027;-87
2024/03/04 04:39:39;;;;;;;22.13;11.50;;;10.40;99.90;;;;;;4971937;28;20023;-84
2024/03/04 04:42:08;;;;;;;20.25;11.63;;;9.10;99.90;;;;;;4985518;28;20031;-86
2024/03/04 04:44:34;;;;;;;20.65;12.02;;;9.10;99.90;;;;;;4978002;28;20531;-86
2024/03/04 04:47:00;;;;;;;19.52;10.73;;;9.10;99.90;;;;;;4989167;28;20038;-83
2024/03/04 04:49:25;;;;;;;20.38;11.20;;;9.20;99.90;;;;;;4969495;28;20020;-85
2024/03/04 04:51:51;;;;;;;19.67;10.95;;;9.10;99.90;;;;;;4957745;28;20019;-86
2024/03/04 04:54:17;;;;;;;16.98;10.93;;;9.80;99.90;;;;;;4973901;28;20022;-83
2024/03/04 04:56:44;;;;;;;22.10;11.07;;;9.10;99.90;;;;;;4972019;28;20035;-85
2024/03/04 04:59:10;;;;;;;20.33;11.48;;;9.10;99.90;;;;;;4972114;28;20657;-86
2024/03/04 05:01:36;;;;;;;20.00;11.20;;;9.10;99.90;;;;;;4968341;28;20026;-84
2024/03/04 05:04:02;;;;;;;23.17;11.35;;;11.20;99.90;;;;;;4968768;28;20061;-81
2024/03/04 05:06:27;;;;;;;18.27;11.40;;;9.10;99.90;;;;;;4972136;28;20085;-84
2024/03/04 05:08:53;;;;;;;18.27;10.88;;;9.20;99.90;;;;;;4970752;28;20027;-85
2024/03/04 05:11:20;;;;;;;26.50;13.13;;;9.70;99.90;;;;;;4980154;28;20027;-84
2024/03/04 05:13:48;;;;;;;20.30;11.85;;;9.10;99.90;;;;;;4983725;28;20035;-87
2024/03/04 05:16:13;;;;;;;21.98;12.00;;;9.10;99.90;;;;;;4969718;28;20037;-83
2024/03/04 05:18:39;;;;;;;20.58;11.40;;;10.60;99.90;;;;;;4967909;28;20091;-84
2024/03/04 05:21:05;;;;;;;19.02;10.40;;;10.40;99.90;;;;;;4971890;28;20437;-84
2024/03/04 05:23:32;;;;;;;19.45;11.60;;;8.20;99.90;;;;;;4972347;28;20031;-85
2024/03/04 05:25:58;;;;;;;22.35;11.45;;;9.10;99.90;;;;;;4972212;28;20031;-85
2024/03/04 05:28:24;;;;;;;22.95;11.88;;;9.20;99.90;;;;;;4968700;28;20034;-83
2024/03/04 05:30:50;;;;;;;25.10;11.48;;;9.20;99.90;;;;;;4971442;28;20033;-86
2024/03/04 05:33:16;;;;;;;19.33;11.57;;;10.80;99.90;;;;;;4971857;28;20146;-84
2024/03/04 05:35:42;;;;;;;19.48;10.48;;;9.30;99.90;;;;;;4966520;28;20053;-84
2024/03/04 05:38:08;;;;;;;20.17;12.30;;;9.30;99.90;;;;;;4971107;28;20054;-87
2024/03/04 05:40:33;;;;;;;18.83;10.65;;;9.70;99.90;;;;;;4981071;28;20602;-86
2024/03/04 05:42:59;;;;;;;20.92;11.25;;;10.40;99.90;;;;;;4970874;28;20364;-84
2024/03/04 05:45:25;;;;;;;21.15;12.00;;;9.40;99.90;;;;;;4971682;28;20030;-85
2024/03/04 05:47:51;;;;;;;18.20;10.57;;;10.50;99.90;;;;;;4967349;28;20035;-84
2024/03/04 05:50:17;;;;;;;17.23;10.18;;;11.00;99.90;;;;;;4969658;28;20066;-87
2024/03/04 05:52:46;;;;;;;20.08;12.07;;;9.40;99.90;;;;;;4973018;28;20365;-84
2024/03/04 05:55:16;;;;;;;18.95;11.07;;;9.40;99.90;;;;;;4971356;28;20031;-82
2024/03/04 05:57:42;;;;;;;18.50;11.27;;;9.50;99.90;;;;;;4973312;28;20027;-81
2024/03/04 06:00:12;;;;;;;21.15;11.77;;;10.30;99.90;;;;;;4970747;28;20039;-84
2024/03/04 06:02:44;;;;;;;19.58;11.57;;;9.30;99.90;;;;;;4971427;28;20031;-84
2024/03/04 06:05:11;;;;;;;21.70;12.10;;;10.30;99.90;;;;;;4968331;28;20063;-83
2024/03/04 06:07:37;;;;;;;19.50;11.50;;;10.60;99.90;;;;;;4970435;28;20046;-85
2024/03/04 06:10:03;;;;;;;18.92;10.75;;;9.40;99.90;;;;;;4970912;28;20023;-86
2024/03/04 06:12:29;;;;;;;21.05;11.02;;;9.40;99.90;;;;;;4973482;28;20050;-89
2024/03/04 06:14:55;;;;;;;18.08;11.00;;;9.40;99.90;;;;;;4963910;28;20091;-87
2024/03/04 06:17:21;;;;;;;21.05;10.88;;;9.30;99.90;;;;;;4969753;28;20547;-85
2024/03/04 06:19:46;;;;;;;21.15;12.05;;;10.80;99.90;;;;;;4970406;28;20097;-88
2024/03/04 06:22:15;;;;;;;19.67;10.75;;;9.10;99.90;;;;;;4968763;28;20035;-87
2024/03/04 06:24:41;;;;;;;19.48;11.07;;;9.30;99.90;;;;;;4964914;28;20114;-86
2024/03/04 06:27:07;;;;;;;21.05;11.18;;;9.30;99.90;;;;;;4968392;28;20065;-89
2024/03/04 06:29:34;;;;;;;17.90;10.65;;;9.90;99.90;;;;;;4968254;28;20023;-84
2024/03/04 06:32:02;;;;;;;18.05;10.95;;;9.50;99.90;;;;;;4972916;28;20027;-89
2024/03/04 06:34:31;;;;;;;19.30;10.60;;;10.30;99.90;;;;;;4962182;28;20023;-89
2024/03/04 06:36:58;;;;;;;19.75;11.23;;;9.30;99.90;;;;;;4955393;28;20201;-84
2024/03/04 06:39:24;;;;;;;20.13;11.07;;;10.00;99.90;;;;;;4960452;28;20031;-87
2024/03/04 06:41:50;;;;;;;19.50;10.63;;;9.30;99.90;;;;;;4958133;28;20062;-87
2024/03/04 06:44:16;;;;;;;19.05;10.95;;;9.30;99.90;;;;;;4968514;28;20026;-89
2024/03/04 06:46:42;;;;;;;18.52;10.93;;;9.40;99.90;;;;;;4962603;28;20026;-88
2024/03/04 06:49:08;;;;;;;19.48;10.35;;;9.80;99.90;;;;;;4965545;28;20019;-87
2024/03/04 06:51:37;;;;;;;19.15;10.43;;;9.50;99.90;;;;;;4966423;28;20125;-84
2024/03/04 06:54:06;;;;;;;18.38;10.88;;;9.20;99.90;;;;;;4969869;28;20114;-88
2024/03/04 06:56:32;;;;;;;21.52;11.23;;;11.00;99.90;;;;;;4964827;28;20035;-87
2024/03/04 06:58:58;;;;;;;23.15;11.10;;;10.00;99.90;;;;;;4951985;28;21969;-86
2024/03/04 07:01:24;;;;;;;20.92;11.52;;;10.00;99.90;;;;;;4954465;28;20039;-86
2024/03/04 07:03:50;;;;;;;25.33;11.45;;;10.10;99.90;;;;;;4963158;28;20026;-88
2024/03/04 07:06:15;;;;;;;17.25;9.75;;;9.20;99.90;;;;;;4976770;28;21112;-88
2024/03/04 07:08:41;;;;;;;21.40;10.65;;;9.30;99.90;;;;;;4961090;28;20039;-88
2024/03/04 07:11:12;;;;;;;21.52;11.05;;;9.30;99.90;;;;;;4952325;28;20074;-88
2024/03/04 07:13:38;;;;;;;19.75;11.27;;;11.20;99.90;;;;;;4969327;28;20034;-87
2024/03/04 07:16:07;;;;;;;21.90;10.68;;;10.00;99.90;;;;;;4969697;28;20267;-86
2024/03/04 07:18:33;;;;;;;22.63;11.43;;;9.30;99.90;;;;;;4969262;28;20070;-84
2024/03/04 07:20:59;;;;;;;20.48;11.13;;;9.40;99.90;;;;;;4966174;28;20807;-84
2024/03/04 07:23:25;;;;;;;20.70;11.05;;;9.40;99.90;;;;;;4966732;28;20492;-88
2024/03/04 07:25:51;;;;;;;17.20;10.48;;;10.30;99.90;;;;;;4970671;28;20031;-88
2024/03/04 07:28:18;;;;;;;18.75;9.82;;;9.30;99.90;;;;;;4966103;28;20131;-88
2024/03/04 07:30:44;;;;;;;19.20;10.35;;;10.20;99.90;;;;;;4966932;28;20546;-89
2024/03/04 07:33:11;;;;;;;25.90;10.38;;;9.20;99.90;;;;;;4932511;28;20038;-88
2024/03/04 07:35:41;;;;;;;20.45;10.63;;;9.20;99.90;;;;;;4962714;28;20114;-88
2024/03/04 07:38:06;;;;;;;22.70;10.98;;;9.20;99.90;;;;;;4961210;28;20062;-87
2024/03/04 07:40:32;;;;;;;18.15;10.35;;;9.20;99.90;;;;;;4963376;28;20034;-88
2024/03/04 07:42:58;;;;;;;23.17;11.30;;;9.20;99.90;;;;;;4977427;28;21278;-87
2024/03/04 07:45:23;;;;;;;20.42;10.95;;;9.00;99.90;;;;;;4961474;28;20034;-88
2024/03/04 07:47:50;;;;;;;19.70;9.40;;;9.10;99.90;;;;;;4961979;28;20039;-86
2024/03/04 07:50:16;;;;;;;21.65;10.88;;;9.60;99.90;;;;;;4963658;28;20030;-88
2024/03/04 07:52:41;;;;;;;17.00;10.25;;;10.30;99.90;;;;;;4968461;28;20505;-88
2024/03/04 07:55:09;;;;;;;19.55;11.13;;;9.20;99.90;;;;;;4966973;28;20027;-88
2024/03/04 07:57:35;;;;;;;16.58;10.43;;;9.20;99.90;;;;;;4967956;28;20030;-86
2024/03/04 08:00:03;;;;;;;20.65;10.57;;;9.20;99.90;;;;;;4962535;28;20073;-88
2024/03/04 08:02:28;;;;;;;19.77;10.73;;;9.90;99.90;;;;;;4978037;28;20039;-87
2024/03/04 08:04:54;;;;;;;18.67;10.55;;;9.60;99.90;;;;;;4959546;28;20070;-86
2024/03/04 08:07:20;;;;;;;19.15;10.80;;;9.40;99.90;;;;;;4965874;28;20530;-87
2024/03/04 08:09:45;;;;;;;20.17;10.75;;;10.30;99.90;;;;;;4964963;28;20031;-88
2024/03/04 08:12:11;;;;;;;20.52;10.77;;;9.30;99.90;;;;;;4978803;28;20416;-88
2024/03/04 08:14:37;;;;;;;20.45;10.52;;;11.40;99.90;;;;;;4981090;28;20022;-88
2024/03/04 08:17:03;;;;;;;19.30;11.05;;;9.30;99.90;;;;;;4980937;28;20042;-89
2024/03/04 08:19:30;;;;;;;21.17;10.65;;;9.30;99.90;;;;;;4975134;28;20030;-90
2024/03/04 08:21:55;;;;;;;22.35;11.05;;;9.30;99.90;;;;;;4980166;28;20014;-89
2024/03/04 08:24:21;;;;;;;20.45;10.55;;;9.30;99.90;;;;;;4984095;28;20030;-86
2024/03/04 08:26:46;;;;;;;19.45;10.30;;;9.90;99.90;;;;;;4984175;28;20047;-88
2024/03/04 08:29:12;;;;;;;17.30;10.02;;;10.80;99.90;;;;;;4984042;28;20010;-89
2024/03/04 08:31:38;;;;;;;21.30;11.82;;;9.30;99.90;;;;;;4998678;28;20018;-90
2024/03/04 08:34:04;;;;;;;22.08;10.80;;;10.60;99.90;;;;;;4988432;28;20097;-89
2024/03/04 08:36:31;;;;;;;20.30;11.27;;;10.50;99.90;;;;;;4982290;28;20207;-89
2024/03/04 08:38:56;;;;;;;16.60;10.10;;;11.10;99.90;;;;;;4983785;28;20098;-90
2024/03/04 08:41:24;;;;;;;20.35;11.63;;;11.20;99.90;;;;;;4989224;28;20055;-90
2024/03/04 08:43:50;;;;;;;22.98;10.68;;;9.50;99.90;;;;;;4987444;28;20019;-89
2024/03/04 08:46:16;;;;;;;21.98;10.93;;;9.50;99.90;;;;;;4986272;28;20121;-89
2024/03/04 08:48:42;;;;;;;17.17;10.55;;;11.10;99.90;;;;;;4987188;28;20034;-88
2024/03/04 08:51:08;;;;;;;21.08;10.98;;;11.40;99.90;;;;;;4986084;28;20033;-89
2024/03/04 08:53:34;;;;;;;19.42;11.02;;;9.50;99.90;;;;;;4986194;28;20176;-85
2024/03/04 08:56:00;;;;;;;20.70;10.80;;;9.50;99.90;;;;;;4985222;28;20065;-89
2024/03/04 08:58:26;;;;;;;19.20;11.05;;;10.50;99.90;;;;;;4988482;28;20050;-87
2024/03/04 09:00:51;;;;;;;18.48;10.60;;;9.70;99.90;;;;;;4982286;28;20651;-90
2024/03/04 09:03:17;;;;;;;17.58;9.93;;;9.60;99.90;;;;;;4983569;28;21341;-87
2024/03/04 09:05:44;;;;;;;19.40;10.55;;;10.60;99.90;;;;;;4972916;28;20170;-87
2024/03/04 09:08:11;;;;;;;17.98;11.15;;;9.90;99.90;;;;;;4964240;28;20035;-88
2024/03/04 09:10:37;;;;;;;18.15;9.80;;;10.60;99.90;;;;;;4964276;28;20519;-86
2024/03/04 09:13:03;;;;;;;20.75;10.93;;;9.70;99.90;;;;;;4965137;28;20042;-85
2024/03/04 09:15:29;;;;;;;22.05;10.98;;;9.70;99.90;;;;;;4963208;28;20041;-87
2024/03/04 09:17:55;;;;;;;22.40;11.35;;;11.40;99.90;;;;;;4952437;28;20022;-88
2024/03/04 09:20:20;;;;;;;20.80;11.48;;;10.60;99.90;;;;;;4968941;28;20023;-84
2024/03/04 09:22:46;;;;;;;23.20;11.00;;;9.80;99.90;;;;;;4964920;28;20497;-88
2024/03/04 09:25:12;;;;;;;20.85;10.38;;;10.40;99.90;;;;;;4979240;28;20094;-87
2024/03/04 09:27:41;;;;;;;21.38;11.70;;;9.80;99.90;;;;;;4964547;28;20445;-88
2024/03/04 09:30:07;;;;;;;22.20;11.23;;;10.40;99.90;;;;;;4963688;28;20035;-87
2024/03/04 09:32:33;;;;;;;20.30;11.05;;;9.90;99.90;;;;;;4966436;28;20519;-88
2024/03/04 09:34:59;;;;;;;21.27;11.40;;;9.80;99.90;;;;;;4961222;28;20091;-84
2024/03/04 09:37:24;;;;;;;21.65;11.18;;;11.00;99.90;;;;;;4968651;28;20054;-88
2024/03/04 09:39:50;;;;;;;20.65;11.48;;;9.90;99.90;;;;;;4973324;28;20023;-89
2024/03/04 09:42:17;;;;;;;21.10;11.20;;;10.60;99.90;;;;;;4981747;28;20035;-88
2024/03/04 09:44:44;;;;;;;21.92;11.23;;;10.40;99.90;;;;;;4979696;28;20782;-88
2024/03/04 09:47:10;;;;;;;21.08;11.27;;;9.90;99.90;;;;;;4982401;28;20393;-89
2024/03/04 09:49:38;;;;;;;24.45;11.90;;;11.30;99.90;;;;;;4995382;28;20403;-88
2024/03/04 09:52:04;;;;;;;22.42;11.05;;;10.00;99.90;;;;;;4970295;28;20045;-89
2024/03/04 09:54:35;;;;;;;21.83;11.30;;;10.00;99.90;;;;;;4968964;28;20030;-90
2024/03/04 09:57:01;;;;;;;21.42;10.48;;;10.00;99.90;;;;;;4949145;28;20046;-88
2024/03/04 09:59:27;;;;;;;21.63;11.10;;;10.10;99.90;;;;;;4966295;28;20035;-89
2024/03/04 10:01:53;;;;;;;21.60;10.32;;;11.40;99.90;;;;;;4967092;28;20039;-90
2024/03/04 10:04:21;;;;;;;25.17;11.52;;;10.60;99.90;;;;;;4971442;28;20034;-88
2024/03/04 10:06:47;;;;;;;25.25;11.02;;;10.10;99.90;;;;;;4966224;28;20114;-88
2024/03/04 10:09:12;;;;;;;23.40;11.30;;;10.20;99.90;;;;;;4986453;28;20054;-87
2024/03/04 10:11:39;;;;;;;21.10;11.43;;;10.20;99.90;;;;;;4964003;28;20023;-88
2024/03/04 10:14:05;;;;;;;20.70;11.38;;;10.20;99.90;;;;;;4979130;28;20077;-89
2024/03/04 10:16:31;;;;;;;21.75;10.95;;;10.20;99.90;;;;;;4965621;28;20027;-85
2024/03/04 10:18:59;;;;;;;21.15;10.85;;;10.30;99.90;;;;;;4967406;28;20058;-89
2024/03/04 10:21:27;;;;;;;21.23;11.40;;;12.60;99.90;;;;;;4975703;28;20038;-87
2024/03/04 10:23:53;;;;;;;19.83;11.68;;;13.00;99.90;;;;;;4982214;28;20027;-89
2024/03/04 10:26:19;;;;;;;21.40;11.32;;;10.50;99.90;;;;;;4964281;28;20038;-87
2024/03/04 10:28:44;;;;;;;18.55;11.38;;;10.50;99.90;;;;;;4964029;28;20031;-89
2024/03/04 10:31:11;;;;;;;20.35;11.18;;;11.40;99.90;;;;;;4965774;28;20027;-89
2024/03/04 10:33:40;;;;;;;20.92;11.40;;;10.60;99.90;;;;;;4966563;28;20493;-88
2024/03/04 10:36:17;;;;;;;24.88;12.15;;;11.20;99.90;;;;;;4963159;28;20061;-89
2024/03/04 10:38:45;;;;;;;23.52;11.60;;;10.60;99.90;;;;;;4970081;28;20030;-88
2024/03/04 10:41:25;;;;;;;21.73;11.30;;;10.60;99.90;;;;;;4967725;28;20319;-89
2024/03/04 10:43:54;;;;;;;24.08;12.00;;;10.60;99.90;;;;;;4964489;28;20454;-89
2024/03/04 10:46:20;;;;;;;23.33;11.70;;;10.70;99.90;;;;;;4972030;28;20070;-89
2024/03/04 10:48:46;;;;;;;22.90;11.25;;;11.50;99.90;;;;;;4974177;28;20050;-89
2024/03/04 10:51:17;;;;;;;21.60;12.32;;;10.90;99.90;;;;;;4965466;28;20039;-88
2024/03/04 10:53:44;;;;;;;19.85;11.65;;;10.60;99.90;;;;;;4972964;28;20113;-88
2024/03/04 10:56:15;;;;;;;23.58;13.05;;;10.40;99.90;;;;;;4988026;28;20022;-88
2024/03/04 10:58:44;;;;;;;21.65;12.10;;;10.50;99.90;;;;;;4972443;28;20033;-88
2024/03/04 11:01:19;;;;;;;24.95;12.45;;;10.50;99.90;;;;;;4975438;28;20074;-88
2024/03/04 11:03:54;;;;;;;20.95;11.73;;;11.50;99.90;;;;;;4974621;28;20089;-88
2024/03/04 11:06:23;;;;;;;19.65;11.48;;;11.00;99.90;;;;;;4967717;28;21948;-89
2024/03/04 11:08:54;;;;;;;21.70;11.07;;;11.20;99.90;;;;;;4984481;28;20026;-89
2024/03/04 11:11:34;;;;;;;20.92;10.85;;;10.70;99.90;;;;;;4977393;28;20061;-86
2024/03/04 11:14:14;;;;;;;23.38;11.60;;;10.70;99.90;;;;;;4982571;28;20014;-88
2024/03/04 11:16:47;;;;;;;22.40;11.32;;;10.60;99.90;;;;;;4988700;28;20050;-89
2024/03/04 11:19:43;;;;;;;20.30;10.73;;;10.70;99.90;;;;;;4982970;28;20562;-87
2024/03/04 11:22:13;;;;;;;20.73;10.52;;;10.80;99.90;;;;;;4968401;28;20384;-89
2024/03/04 11:24:40;;;;;;;20.80;11.18;;;10.80;99.90;;;;;;4965440;28;20042;-89
2024/03/04 11:27:06;;;;;;;21.70;11.55;;;10.90;99.90;;;;;;4983885;28;20034;-89
2024/03/04 11:29:34;;;;;;;19.00;10.55;;;11.00;99.90;;;;;;4966430;28;20034;-88
2024/03/04 11:32:00;;;;;;;22.92;11.60;;;13.00;99.90;;;;;;4968244;28;20023;-86
2024/03/04 11:34:26;;;;;;;23.30;11.63;;;10.90;99.90;;;;;;4969436;28;20019;-86
2024/03/04 11:36:53;;;;;;;23.90;12.65;;;10.90;99.90;;;;;;4968363;28;20030;-88
2024/03/04 11:39:21;;;;;;;25.67;11.88;;;10.90;99.90;;;;;;4968712;28;20122;-88
2024/03/04 11:41:51;;;;;;;24.63;11.98;;;10.90;99.90;;;;;;4970100;28;20031;-87
2024/03/04 11:44:24;;;;;;;21.92;11.98;;;11.50;99.90;;;;;;4971550;28;20106;-88
2024/03/04 11:46:50;;;;;;;23.58;12.13;;;11.10;99.90;;;;;;4970108;28;20027;-87
2024/03/04 11:49:44;;;;;;;23.70;11.95;;;10.80;99.90;;;;;;4958327;28;20026;-89
2024/03/04 11:52:14;;;;;;;22.38;12.30;;;10.90;99.90;;;;;;4988534;28;20030;-88
2024/03/04 11:54:48;;;;;;;23.50;11.70;;;10.80;99.90;;;;;;4968272;28;20110;-88
2024/03/04 11:57:15;;;;;;;26.98;13.13;;;10.80;99.90;;;;;;4946845;28;20157;-88
2024/03/04 11:59:56;;;;;;;23.30;13.32;;;10.80;99.90;;;;;;4968638;28;20031;-88
2024/03/04 12:02:21;;;;;;;29.08;15.60;;;11.60;99.90;;;;;;4966562;28;20034;-90
2024/03/04 12:04:47;;;;;;;24.38;13.15;;;10.80;99.90;;;;;;4971104;28;20125;-89
2024/03/04 12:07:14;;;;;;;26.45;14.60;;;11.50;99.90;;;;;;4972528;28;20037;-88
2024/03/04 12:09:41;;;;;;;22.95;13.13;;;10.60;99.90;;;;;;4972844;28;20485;-87
2024/03/04 12:12:08;;;;;;;24.95;13.25;;;10.60;99.90;;;;;;4970931;28;20089;-89
2024/03/04 12:14:34;;;;;;;26.20;13.30;;;10.60;99.90;;;;;;4965910;28;20117;-88
2024/03/04 12:17:00;;;;;;;24.98;13.23;;;11.20;99.90;;;;;;4967709;28;20134;-87
2024/03/04 12:19:26;;;;;;;23.05;13.18;;;;;;;;;;4970489;28;20602;-89
2024/03/04 12:21:53;;;;;;;22.25;13.30;;;10.60;99.90;;;;;;4968929;28;20129;-90
2024/03/04 12:24:21;;;;;;;26.30;13.68;;;12.60;99.90;;;;;;4967645;28;20057;-90
2024/03/04 12:26:55;;;;;;;22.27;12.63;;;12.90;99.90;;;;;;4970560;28;20034;-88
2024/03/04 12:29:23;;;;;;;25.42;14.00;;;11.70;99.90;;;;;;4962257;28;20149;-89
2024/03/04 12:31:50;;;;;;;23.40;14.02;;;12.80;99.90;;;;;;4963950;28;20043;-88
2024/03/04 12:34:41;;;;;;;24.73;14.32;;;12.30;99.90;;;;;;4993592;28;20027;-86